sensor_id;sensor_type;location;lat;lon;timestamp;temperature;humidity
22383;DHT22;11359;45.802;13.530;2022-11-20T00:02:08;18.00;42.50
22383;DHT22;11359;45.802;13.530;2022-11-20T00:04:34;17.90;42.50
22383;DHT22;11359;45.802;13.530;2022-11-20T00:07:00;17.90;42.60
22383;DHT22;11359;45.802;13.530;2022-11-20T00:09:25;17.80;42.70
22383;DHT22;11359;45.802;13.530;2022-11-20T00:11:51;17.80;42.70
22383;DHT22;11359;45.802;13.530;2022-11-20T00:14:16;17.80;42.70
22383;DHT22;11359;45.802;13.530;2022-11-20T00:16:42;17.80;42.80
22383;DHT22;11359;45.802;13.530;2022-11-20T00:19:07;17.70;42.80
22383;DHT22;11359;45.802;13.530;2022-11-20T00:21:33;17.70;42.80
22383;DHT22;11359;45.802;13.530;2022-11-20T00:23:58;17.60;42.90
22383;DHT22;11359;45.802;13.530;2022-11-20T00:26:24;17.60;42.90
22383;DHT22;11359;45.802;13.530;2022-11-20T00:28:52;17.60;42.90
22383;DHT22;11359;45.802;13.530;2022-11-20T00:31:18;17.60;43.00
22383;DHT22;11359;45.802;13.530;2022-11-20T00:33:44;17.50;42.90
22383;DHT22;11359;45.802;13.530;2022-11-20T00:36:13;17.40;43.00
22383;DHT22;11359;45.802;13.530;2022-11-20T00:38:39;17.50;43.10
22383;DHT22;11359;45.802;13.530;2022-11-20T00:41:06;17.40;43.10
22383;DHT22;11359;45.802;13.530;2022-11-20T00:43:32;17.40;43.10
22383;DHT22;11359;45.802;13.530;2022-11-20T00:45:58;17.30;43.10
22383;DHT22;11359;45.802;13.530;2022-11-20T00:48:24;17.30;43.20
22383;DHT22;11359;45.802;13.530;2022-11-20T00:50:49;17.30;43.20
22383;DHT22;11359;45.802;13.530;2022-11-20T00:53:15;17.30;43.30
22383;DHT22;11359;45.802;13.530;2022-11-20T00:55:40;17.20;43.40
22383;DHT22;11359;45.802;13.530;2022-11-20T00:58:06;17.20;43.50
22383;DHT22;11359;45.802;13.530;2022-11-20T01:00:32;17.10;43.50
22383;DHT22;11359;45.802;13.530;2022-11-20T01:02:57;17.20;43.60
22383;DHT22;11359;45.802;13.530;2022-11-20T01:05:23;17.10;43.60
22383;DHT22;11359;45.802;13.530;2022-11-20T01:07:48;17.10;43.60
22383;DHT22;11359;45.802;13.530;2022-11-20T01:10:14;17.10;43.60
22383;DHT22;11359;45.802;13.530;2022-11-20T01:12:39;17.00;43.60
22383;DHT22;11359;45.802;13.530;2022-11-20T01:15:05;17.00;43.60
22383;DHT22;11359;45.802;13.530;2022-11-20T01:17:31;17.00;43.60
22383;DHT22;11359;45.802;13.530;2022-11-20T01:19:56;17.00;43.70
22383;DHT22;11359;45.802;13.530;2022-11-20T01:22:22;17.00;43.80
22383;DHT22;11359;45.802;13.530;2022-11-20T01:24:47;16.90;43.80
22383;DHT22;11359;45.802;13.530;2022-11-20T01:27:13;16.90;43.90
22383;DHT22;11359;45.802;13.530;2022-11-20T01:29:39;16.90;43.90
22383;DHT22;11359;45.802;13.530;2022-11-20T01:32:04;16.80;43.80
22383;DHT22;11359;45.802;13.530;2022-11-20T01:34:30;16.80;43.90
22383;DHT22;11359;45.802;13.530;2022-11-20T01:36:55;16.80;43.90
22383;DHT22;11359;45.802;13.530;2022-11-20T01:39:22;16.70;43.90
22383;DHT22;11359;45.802;13.530;2022-11-20T01:41:48;16.70;44.00
22383;DHT22;11359;45.802;13.530;2022-11-20T01:47:07;16.70;44.10
22383;DHT22;11359;45.802;13.530;2022-11-20T01:49:37;16.60;44.10
22383;DHT22;11359;45.802;13.530;2022-11-20T01:52:17;16.60;44.20
22383;DHT22;11359;45.802;13.530;2022-11-20T01:54:49;16.60;44.30
22383;DHT22;11359;45.802;13.530;2022-11-20T01:57:16;16.50;44.30
22383;DHT22;11359;45.802;13.530;2022-11-20T01:59:45;16.50;44.30
22383;DHT22;11359;45.802;13.530;2022-11-20T02:02:13;16.50;44.40
22383;DHT22;11359;45.802;13.530;2022-11-20T02:04:39;16.50;44.40
22383;DHT22;11359;45.802;13.530;2022-11-20T02:07:04;16.50;44.50
22383;DHT22;11359;45.802;13.530;2022-11-20T02:09:30;16.40;44.50
22383;DHT22;11359;45.802;13.530;2022-11-20T02:11:56;16.40;44.50
22383;DHT22;11359;45.802;13.530;2022-11-20T02:14:23;16.40;44.60
22383;DHT22;11359;45.802;13.530;2022-11-20T02:16:49;16.30;44.50
22383;DHT22;11359;45.802;13.530;2022-11-20T02:19:28;16.40;44.70
22383;DHT22;11359;45.802;13.530;2022-11-20T02:24:21;16.30;44.80
22383;DHT22;11359;45.802;13.530;2022-11-20T02:26:51;16.30;44.90
22383;DHT22;11359;45.802;13.530;2022-11-20T02:29:19;16.20;44.90
22383;DHT22;11359;45.802;13.530;2022-11-20T02:31:47;16.30;44.90
22383;DHT22;11359;45.802;13.530;2022-11-20T02:34:12;16.20;44.90
22383;DHT22;11359;45.802;13.530;2022-11-20T02:36:38;16.20;45.00
22383;DHT22;11359;45.802;13.530;2022-11-20T02:39:05;16.20;45.10
22383;DHT22;11359;45.802;13.530;2022-11-20T02:41:31;16.10;45.10
22383;DHT22;11359;45.802;13.530;2022-11-20T02:43:57;16.20;45.20
22383;DHT22;11359;45.802;13.530;2022-11-20T02:46:23;16.20;45.30
22383;DHT22;11359;45.802;13.530;2022-11-20T02:48:48;16.10;45.20
22383;DHT22;11359;45.802;13.530;2022-11-20T02:51:14;16.10;45.20
22383;DHT22;11359;45.802;13.530;2022-11-20T02:53:39;16.10;45.30
22383;DHT22;11359;45.802;13.530;2022-11-20T02:56:05;16.10;45.30
22383;DHT22;11359;45.802;13.530;2022-11-20T02:58:31;16.10;45.40
22383;DHT22;11359;45.802;13.530;2022-11-20T03:00:56;16.00;45.30
22383;DHT22;11359;45.802;13.530;2022-11-20T03:03:22;16.00;45.30
22383;DHT22;11359;45.802;13.530;2022-11-20T03:05:47;16.00;45.40
22383;DHT22;11359;45.802;13.530;2022-11-20T03:08:13;15.90;45.40
22383;DHT22;11359;45.802;13.530;2022-11-20T03:10:38;15.90;45.40
22383;DHT22;11359;45.802;13.530;2022-11-20T03:13:04;15.90;45.40
22383;DHT22;11359;45.802;13.530;2022-11-20T03:15:29;15.90;45.40
22383;DHT22;11359;45.802;13.530;2022-11-20T03:17:55;15.90;45.50
22383;DHT22;11359;45.802;13.530;2022-11-20T03:20:21;15.80;45.50
22383;DHT22;11359;45.802;13.530;2022-11-20T03:22:47;15.80;45.60
22383;DHT22;11359;45.802;13.530;2022-11-20T03:25:12;15.80;45.60
22383;DHT22;11359;45.802;13.530;2022-11-20T03:27:38;15.80;45.60
22383;DHT22;11359;45.802;13.530;2022-11-20T03:30:04;15.80;45.70
22383;DHT22;11359;45.802;13.530;2022-11-20T03:32:30;15.80;45.80
22383;DHT22;11359;45.802;13.530;2022-11-20T03:34:56;15.80;45.80
22383;DHT22;11359;45.802;13.530;2022-11-20T03:37:22;15.70;45.80
22383;DHT22;11359;45.802;13.530;2022-11-20T03:39:47;15.70;45.80
22383;DHT22;11359;45.802;13.530;2022-11-20T03:42:13;15.70;45.80
22383;DHT22;11359;45.802;13.530;2022-11-20T03:44:57;15.70;45.80
22383;DHT22;11359;45.802;13.530;2022-11-20T03:47:22;15.70;45.80
22383;DHT22;11359;45.802;13.530;2022-11-20T03:49:48;15.70;45.90
22383;DHT22;11359;45.802;13.530;2022-11-20T03:52:13;15.60;46.00
22383;DHT22;11359;45.802;13.530;2022-11-20T03:54:39;15.60;46.00
22383;DHT22;11359;45.802;13.530;2022-11-20T03:57:05;15.60;46.00
22383;DHT22;11359;45.802;13.530;2022-11-20T03:59:30;15.60;46.10
22383;DHT22;11359;45.802;13.530;2022-11-20T04:01:56;15.60;46.10
22383;DHT22;11359;45.802;13.530;2022-11-20T04:04:21;15.60;46.10
22383;DHT22;11359;45.802;13.530;2022-11-20T04:06:47;15.60;46.10
22383;DHT22;11359;45.802;13.530;2022-11-20T04:09:12;15.50;46.10
22383;DHT22;11359;45.802;13.530;2022-11-20T04:11:39;15.50;46.10
22383;DHT22;11359;45.802;13.530;2022-11-20T04:14:05;15.50;46.10
22383;DHT22;11359;45.802;13.530;2022-11-20T04:16:32;15.50;46.10
22383;DHT22;11359;45.802;13.530;2022-11-20T04:18:59;15.50;46.10
22383;DHT22;11359;45.802;13.530;2022-11-20T04:21:25;15.50;46.20
22383;DHT22;11359;45.802;13.530;2022-11-20T04:23:51;15.50;46.20
22383;DHT22;11359;45.802;13.530;2022-11-20T04:26:18;15.40;46.20
22383;DHT22;11359;45.802;13.530;2022-11-20T04:28:44;15.40;46.30
22383;DHT22;11359;45.802;13.530;2022-11-20T04:31:11;15.40;46.30
22383;DHT22;11359;45.802;13.530;2022-11-20T04:33:37;15.40;46.40
22383;DHT22;11359;45.802;13.530;2022-11-20T04:36:03;15.40;46.40
22383;DHT22;11359;45.802;13.530;2022-11-20T04:38:29;15.40;46.50
22383;DHT22;11359;45.802;13.530;2022-11-20T04:41:01;15.40;46.40
22383;DHT22;11359;45.802;13.530;2022-11-20T04:43:27;15.40;46.50
22383;DHT22;11359;45.802;13.530;2022-11-20T04:45:53;15.40;46.50
22383;DHT22;11359;45.802;13.530;2022-11-20T04:48:18;15.40;46.40
22383;DHT22;11359;45.802;13.530;2022-11-20T04:50:44;15.40;46.50
22383;DHT22;11359;45.802;13.530;2022-11-20T04:53:10;15.30;46.50
22383;DHT22;11359;45.802;13.530;2022-11-20T04:55:35;15.30;46.50
22383;DHT22;11359;45.802;13.530;2022-11-20T04:58:01;15.30;46.60
22383;DHT22;11359;45.802;13.530;2022-11-20T05:00:26;15.30;46.70
22383;DHT22;11359;45.802;13.530;2022-11-20T05:02:52;15.30;46.70
22383;DHT22;11359;45.802;13.530;2022-11-20T05:05:18;15.30;46.70
22383;DHT22;11359;45.802;13.530;2022-11-20T05:07:43;15.30;46.70
22383;DHT22;11359;45.802;13.530;2022-11-20T05:10:09;15.30;46.70
22383;DHT22;11359;45.802;13.530;2022-11-20T05:12:34;15.30;46.70
22383;DHT22;11359;45.802;13.530;2022-11-20T05:15:00;15.30;46.70
22383;DHT22;11359;45.802;13.530;2022-11-20T05:17:25;15.30;46.80
22383;DHT22;11359;45.802;13.530;2022-11-20T05:19:51;15.30;46.80
22383;DHT22;11359;45.802;13.530;2022-11-20T05:22:16;15.30;46.90
22383;DHT22;11359;45.802;13.530;2022-11-20T05:24:42;15.30;46.90
22383;DHT22;11359;45.802;13.530;2022-11-20T05:27:07;15.30;46.90
22383;DHT22;11359;45.802;13.530;2022-11-20T05:29:33;15.30;47.00
22383;DHT22;11359;45.802;13.530;2022-11-20T05:31:58;15.30;46.90
22383;DHT22;11359;45.802;13.530;2022-11-20T05:34:24;15.30;46.90
22383;DHT22;11359;45.802;13.530;2022-11-20T05:36:49;15.40;47.00
22383;DHT22;11359;45.802;13.530;2022-11-20T05:39:15;15.40;47.00
22383;DHT22;11359;45.802;13.530;2022-11-20T05:41:40;15.40;47.00
22383;DHT22;11359;45.802;13.530;2022-11-20T05:44:06;15.40;47.00
22383;DHT22;11359;45.802;13.530;2022-11-20T05:46:32;15.40;46.90
22383;DHT22;11359;45.802;13.530;2022-11-20T05:48:57;15.40;47.00
22383;DHT22;11359;45.802;13.530;2022-11-20T05:51:23;15.40;47.00
22383;DHT22;11359;45.802;13.530;2022-11-20T05:53:49;15.40;47.00
22383;DHT22;11359;45.802;13.530;2022-11-20T05:56:16;15.40;47.10
22383;DHT22;11359;45.802;13.530;2022-11-20T05:58:42;15.40;47.10
22383;DHT22;11359;45.802;13.530;2022-11-20T06:01:19;15.40;47.20
22383;DHT22;11359;45.802;13.530;2022-11-20T06:03:44;15.40;47.20
22383;DHT22;11359;45.802;13.530;2022-11-20T06:06:12;15.40;47.20
22383;DHT22;11359;45.802;13.530;2022-11-20T06:08:38;15.50;47.30
22383;DHT22;11359;45.802;13.530;2022-11-20T06:11:07;15.50;47.30
22383;DHT22;11359;45.802;13.530;2022-11-20T06:13:33;15.50;47.40
22383;DHT22;11359;45.802;13.530;2022-11-20T06:15:58;15.50;47.40
22383;DHT22;11359;45.802;13.530;2022-11-20T06:18:25;15.60;47.50
22383;DHT22;11359;45.802;13.530;2022-11-20T06:20:58;15.60;47.50
22383;DHT22;11359;45.802;13.530;2022-11-20T06:23:23;15.60;47.50
22383;DHT22;11359;45.802;13.530;2022-11-20T06:25:49;15.60;47.60
22383;DHT22;11359;45.802;13.530;2022-11-20T06:28:14;15.70;47.70
22383;DHT22;11359;45.802;13.530;2022-11-20T06:30:44;15.70;47.80
22383;DHT22;11359;45.802;13.530;2022-11-20T06:33:10;15.70;47.80
22383;DHT22;11359;45.802;13.530;2022-11-20T06:35:35;15.80;47.80
22383;DHT22;11359;45.802;13.530;2022-11-20T06:38:01;15.80;47.90
22383;DHT22;11359;45.802;13.530;2022-11-20T06:40:26;15.90;47.90
22383;DHT22;11359;45.802;13.530;2022-11-20T06:42:53;16.00;48.00
22383;DHT22;11359;45.802;13.530;2022-11-20T06:45:18;16.00;47.90
22383;DHT22;11359;45.802;13.530;2022-11-20T06:47:44;16.10;48.00
22383;DHT22;11359;45.802;13.530;2022-11-20T06:50:09;16.10;47.90
22383;DHT22;11359;45.802;13.530;2022-11-20T06:52:35;16.20;47.80
22383;DHT22;11359;45.802;13.530;2022-11-20T06:55:00;16.30;47.80
22383;DHT22;11359;45.802;13.530;2022-11-20T06:57:26;16.30;47.70
22383;DHT22;11359;45.802;13.530;2022-11-20T06:59:51;16.30;47.60
22383;DHT22;11359;45.802;13.530;2022-11-20T07:02:17;16.40;47.60
22383;DHT22;11359;45.802;13.530;2022-11-20T07:04:42;16.50;47.60
22383;DHT22;11359;45.802;13.530;2022-11-20T07:07:08;16.50;47.60
22383;DHT22;11359;45.802;13.530;2022-11-20T07:09:34;16.50;47.50
22383;DHT22;11359;45.802;13.530;2022-11-20T07:11:59;16.60;47.50
22383;DHT22;11359;45.802;13.530;2022-11-20T07:14:25;16.60;47.50
22383;DHT22;11359;45.802;13.530;2022-11-20T07:16:51;16.70;47.50
22383;DHT22;11359;45.802;13.530;2022-11-20T07:19:16;16.70;47.40
22383;DHT22;11359;45.802;13.530;2022-11-20T07:21:42;16.80;47.40
22383;DHT22;11359;45.802;13.530;2022-11-20T07:24:07;16.80;47.40
22383;DHT22;11359;45.802;13.530;2022-11-20T07:26:33;16.80;47.40
22383;DHT22;11359;45.802;13.530;2022-11-20T07:28:58;16.90;47.50
22383;DHT22;11359;45.802;13.530;2022-11-20T07:31:24;16.90;47.40
22383;DHT22;11359;45.802;13.530;2022-11-20T07:33:49;17.00;47.50
22383;DHT22;11359;45.802;13.530;2022-11-20T07:36:15;17.00;47.50
22383;DHT22;11359;45.802;13.530;2022-11-20T07:38:40;17.10;47.50
22383;DHT22;11359;45.802;13.530;2022-11-20T07:41:06;17.10;47.40
22383;DHT22;11359;45.802;13.530;2022-11-20T07:43:31;17.10;47.40
22383;DHT22;11359;45.802;13.530;2022-11-20T07:45:57;17.20;47.40
22383;DHT22;11359;45.802;13.530;2022-11-20T07:48:24;17.30;47.60
22383;DHT22;11359;45.802;13.530;2022-11-20T07:50:52;17.30;47.30
22383;DHT22;11359;45.802;13.530;2022-11-20T07:53:18;17.30;47.30
22383;DHT22;11359;45.802;13.530;2022-11-20T07:55:46;17.30;47.20
22383;DHT22;11359;45.802;13.530;2022-11-20T07:58:11;17.40;47.10
22383;DHT22;11359;45.802;13.530;2022-11-20T08:00:37;17.40;47.00
22383;DHT22;11359;45.802;13.530;2022-11-20T08:03:05;17.50;47.00
22383;DHT22;11359;45.802;13.530;2022-11-20T08:05:31;17.50;47.10
22383;DHT22;11359;45.802;13.530;2022-11-20T08:07:56;17.50;47.00
22383;DHT22;11359;45.802;13.530;2022-11-20T08:10:22;17.60;47.10
22383;DHT22;11359;45.802;13.530;2022-11-20T08:12:48;17.60;47.10
22383;DHT22;11359;45.802;13.530;2022-11-20T08:15:33;17.70;47.20
22383;DHT22;11359;45.802;13.530;2022-11-20T08:17:59;17.70;47.10
22383;DHT22;11359;45.802;13.530;2022-11-20T08:20:25;17.70;47.10
22383;DHT22;11359;45.802;13.530;2022-11-20T08:22:51;17.80;47.20
22383;DHT22;11359;45.802;13.530;2022-11-20T08:25:16;17.80;47.10
22383;DHT22;11359;45.802;13.530;2022-11-20T08:27:42;17.90;47.00
22383;DHT22;11359;45.802;13.530;2022-11-20T08:30:07;17.90;47.00
22383;DHT22;11359;45.802;13.530;2022-11-20T08:32:33;17.90;46.90
22383;DHT22;11359;45.802;13.530;2022-11-20T08:35:01;18.00;47.00
22383;DHT22;11359;45.802;13.530;2022-11-20T08:37:26;18.00;47.10
22383;DHT22;11359;45.802;13.530;2022-11-20T08:39:52;18.00;47.00
22383;DHT22;11359;45.802;13.530;2022-11-20T08:42:19;18.00;46.90
22383;DHT22;11359;45.802;13.530;2022-11-20T08:44:44;18.10;46.90
22383;DHT22;11359;45.802;13.530;2022-11-20T08:47:10;18.10;46.90
22383;DHT22;11359;45.802;13.530;2022-11-20T08:49:35;18.20;47.00
22383;DHT22;11359;45.802;13.530;2022-11-20T08:52:01;18.10;46.90
22383;DHT22;11359;45.802;13.530;2022-11-20T08:54:26;18.20;46.90
22383;DHT22;11359;45.802;13.530;2022-11-20T08:56:52;18.20;46.90
22383;DHT22;11359;45.802;13.530;2022-11-20T08:59:17;18.20;46.90
22383;DHT22;11359;45.802;13.530;2022-11-20T09:01:43;18.30;46.90
22383;DHT22;11359;45.802;13.530;2022-11-20T09:04:08;18.30;46.90
22383;DHT22;11359;45.802;13.530;2022-11-20T09:06:34;18.30;46.90
22383;DHT22;11359;45.802;13.530;2022-11-20T09:08:59;18.40;47.00
22383;DHT22;11359;45.802;13.530;2022-11-20T09:11:25;18.40;47.00
22383;DHT22;11359;45.802;13.530;2022-11-20T09:13:51;18.40;47.00
22383;DHT22;11359;45.802;13.530;2022-11-20T09:16:16;18.40;47.00
22383;DHT22;11359;45.802;13.530;2022-11-20T09:18:42;18.40;47.00
22383;DHT22;11359;45.802;13.530;2022-11-20T09:21:12;18.40;46.90
22383;DHT22;11359;45.802;13.530;2022-11-20T09:23:38;18.40;46.90
22383;DHT22;11359;45.802;13.530;2022-11-20T09:26:10;18.40;46.90
22383;DHT22;11359;45.802;13.530;2022-11-20T09:28:36;18.50;46.80
22383;DHT22;11359;45.802;13.530;2022-11-20T09:31:09;18.50;46.80
22383;DHT22;11359;45.802;13.530;2022-11-20T09:33:39;18.50;46.70
22383;DHT22;11359;45.802;13.530;2022-11-20T09:36:05;18.50;47.30
22383;DHT22;11359;45.802;13.530;2022-11-20T09:38:30;18.50;46.60
22383;DHT22;11359;45.802;13.530;2022-11-20T09:41:05;18.50;46.50
22383;DHT22;11359;45.802;13.530;2022-11-20T09:46:12;18.50;46.50
22383;DHT22;11359;45.802;13.530;2022-11-20T09:51:28;18.50;46.30
22383;DHT22;11359;45.802;13.530;2022-11-20T09:54:06;18.50;46.30
22383;DHT22;11359;45.802;13.530;2022-11-20T09:56:36;18.50;46.20
22383;DHT22;11359;45.802;13.530;2022-11-20T09:59:04;18.40;46.10
22383;DHT22;11359;45.802;13.530;2022-11-20T10:01:31;18.50;46.00
22383;DHT22;11359;45.802;13.530;2022-11-20T10:06:31;18.40;45.90
22383;DHT22;11359;45.802;13.530;2022-11-20T10:09:01;18.40;45.90
22383;DHT22;11359;45.802;13.530;2022-11-20T10:17:02;18.40;45.90
22383;DHT22;11359;45.802;13.530;2022-11-20T10:27:03;18.50;46.10
22383;DHT22;11359;45.802;13.530;2022-11-20T10:29:34;18.40;46.10
22383;DHT22;11359;45.802;13.530;2022-11-20T10:32:02;18.50;46.00
22383;DHT22;11359;45.802;13.530;2022-11-20T10:36:57;18.50;46.10
22383;DHT22;11359;45.802;13.530;2022-11-20T10:39:39;18.50;46.10
22383;DHT22;11359;45.802;13.530;2022-11-20T10:42:11;18.50;46.00
22383;DHT22;11359;45.802;13.530;2022-11-20T10:44:37;18.50;45.90
22383;DHT22;11359;45.802;13.530;2022-11-20T10:47:24;18.50;45.90
22383;DHT22;11359;45.802;13.530;2022-11-20T10:49:51;18.50;46.00
22383;DHT22;11359;45.802;13.530;2022-11-20T10:52:25;18.50;46.00
22383;DHT22;11359;45.802;13.530;2022-11-20T11:00:00;18.40;46.10
22383;DHT22;11359;45.802;13.530;2022-11-20T11:02:42;18.50;46.10
22383;DHT22;11359;45.802;13.530;2022-11-20T11:05:32;18.40;46.00
22383;DHT22;11359;45.802;13.530;2022-11-20T11:07:55;18.40;46.00
22383;DHT22;11359;45.802;13.530;2022-11-20T11:12:55;18.40;46.00
22383;DHT22;11359;45.802;13.530;2022-11-20T11:15:36;18.40;45.90
22383;DHT22;11359;45.802;13.530;2022-11-20T11:18:02;18.40;45.90
22383;DHT22;11359;45.802;13.530;2022-11-20T11:20:28;18.40;45.90
22383;DHT22;11359;45.802;13.530;2022-11-20T11:22:54;18.40;46.00
22383;DHT22;11359;45.802;13.530;2022-11-20T11:27:53;18.40;45.90
22383;DHT22;11359;45.802;13.530;2022-11-20T11:30:20;18.40;45.90
22383;DHT22;11359;45.802;13.530;2022-11-20T11:32:46;18.30;45.90
22383;DHT22;11359;45.802;13.530;2022-11-20T11:35:22;18.30;45.90
22383;DHT22;11359;45.802;13.530;2022-11-20T11:37:48;18.30;45.90
22383;DHT22;11359;45.802;13.530;2022-11-20T11:40:15;18.30;46.00
22383;DHT22;11359;45.802;13.530;2022-11-20T11:42:44;18.30;46.20
22383;DHT22;11359;45.802;13.530;2022-11-20T11:45:13;18.30;46.20
22383;DHT22;11359;45.802;13.530;2022-11-20T11:55:09;18.40;46.20
22383;DHT22;11359;45.802;13.530;2022-11-20T11:57:46;18.40;46.20
22383;DHT22;11359;45.802;13.530;2022-11-20T12:13:02;18.60;45.70
22383;DHT22;11359;45.802;13.530;2022-11-20T12:15:30;18.60;45.60
22383;DHT22;11359;45.802;13.530;2022-11-20T12:17:56;18.70;45.60
22383;DHT22;11359;45.802;13.530;2022-11-20T12:20:33;18.70;45.50
22383;DHT22;11359;45.802;13.530;2022-11-20T12:25:32;18.70;45.40
22383;DHT22;11359;45.802;13.530;2022-11-20T12:30:25;18.80;45.40
22383;DHT22;11359;45.802;13.530;2022-11-20T12:43:43;19.00;45.30
22383;DHT22;11359;45.802;13.530;2022-11-20T12:46:37;19.00;45.20
22383;DHT22;11359;45.802;13.530;2022-11-20T13:06:46;19.30;44.60
22383;DHT22;11359;45.802;13.530;2022-11-20T13:09:14;19.30;44.50
22383;DHT22;11359;45.802;13.530;2022-11-20T13:11:42;19.30;44.50
22383;DHT22;11359;45.802;13.530;2022-11-20T13:16:52;19.40;44.50
22383;DHT22;11359;45.802;13.530;2022-11-20T13:19:19;19.40;44.30
22383;DHT22;11359;45.802;13.530;2022-11-20T13:21:46;19.50;44.30
22383;DHT22;11359;45.802;13.530;2022-11-20T13:26:59;19.50;44.20
22383;DHT22;11359;45.802;13.530;2022-11-20T13:29:25;19.60;44.10
22383;DHT22;11359;45.802;13.530;2022-11-20T13:32:00;19.50;44.00
22383;DHT22;11359;45.802;13.530;2022-11-20T13:34:27;19.60;43.90
22383;DHT22;11359;45.802;13.530;2022-11-20T13:36:53;19.60;43.80
22383;DHT22;11359;45.802;13.530;2022-11-20T13:41:58;19.70;43.70
22383;DHT22;11359;45.802;13.530;2022-11-20T13:44:26;19.70;43.70
22383;DHT22;11359;45.802;13.530;2022-11-20T13:46:54;19.80;43.70
22383;DHT22;11359;45.802;13.530;2022-11-20T13:49:38;19.80;43.60
22383;DHT22;11359;45.802;13.530;2022-11-20T14:00:17;19.90;43.40
22383;DHT22;11359;45.802;13.530;2022-11-20T14:02:43;19.90;43.40
22383;DHT22;11359;45.802;13.530;2022-11-20T14:05:17;19.90;43.30
22383;DHT22;11359;45.802;13.530;2022-11-20T14:07:44;19.90;43.20
22383;DHT22;11359;45.802;13.530;2022-11-20T14:10:19;20.00;43.20
22383;DHT22;11359;45.802;13.530;2022-11-20T14:12:45;20.00;43.20
22383;DHT22;11359;45.802;13.530;2022-11-20T14:18:19;20.00;43.00
22383;DHT22;11359;45.802;13.530;2022-11-20T14:20:44;20.00;43.00
22383;DHT22;11359;45.802;13.530;2022-11-20T14:23:10;20.00;43.00
22383;DHT22;11359;45.802;13.530;2022-11-20T14:25:36;20.00;42.90
22383;DHT22;11359;45.802;13.530;2022-11-20T14:28:02;20.10;43.00
22383;DHT22;11359;45.802;13.530;2022-11-20T14:30:39;20.10;42.90
22383;DHT22;11359;45.802;13.530;2022-11-20T14:33:09;20.10;42.80
22383;DHT22;11359;45.802;13.530;2022-11-20T14:35:37;20.10;42.80
22383;DHT22;11359;45.802;13.530;2022-11-20T14:38:08;20.20;42.80
22383;DHT22;11359;45.802;13.530;2022-11-20T14:40:37;20.10;42.60
22383;DHT22;11359;45.802;13.530;2022-11-20T14:45:49;20.10;42.50
22383;DHT22;11359;45.802;13.530;2022-11-20T14:48:17;20.20;42.50
22383;DHT22;11359;45.802;13.530;2022-11-20T14:50:43;20.20;42.50
22383;DHT22;11359;45.802;13.530;2022-11-20T14:53:08;20.20;42.50
22383;DHT22;11359;45.802;13.530;2022-11-20T14:55:35;20.20;42.60
22383;DHT22;11359;45.802;13.530;2022-11-20T14:58:21;20.20;42.60
22383;DHT22;11359;45.802;13.530;2022-11-20T15:00:57;20.20;42.40
22383;DHT22;11359;45.802;13.530;2022-11-20T15:03:23;20.20;42.30
22383;DHT22;11359;45.802;13.530;2022-11-20T15:05:49;20.20;42.20
22383;DHT22;11359;45.802;13.530;2022-11-20T15:08:15;20.20;42.20
22383;DHT22;11359;45.802;13.530;2022-11-20T15:10:48;20.30;42.20
22383;DHT22;11359;45.802;13.530;2022-11-20T15:13:16;20.20;42.10
22383;DHT22;11359;45.802;13.530;2022-11-20T15:18:13;20.20;42.00
22383;DHT22;11359;45.802;13.530;2022-11-20T15:20:39;20.20;41.80
22383;DHT22;11359;45.802;13.530;2022-11-20T15:23:12;20.20;41.70
22383;DHT22;11359;45.802;13.530;2022-11-20T15:25:38;20.20;41.60
22383;DHT22;11359;45.802;13.530;2022-11-20T15:28:04;20.20;41.60
22383;DHT22;11359;45.802;13.530;2022-11-20T15:30:35;20.20;41.60
22383;DHT22;11359;45.802;13.530;2022-11-20T15:33:00;20.10;41.60
22383;DHT22;11359;45.802;13.530;2022-11-20T15:35:26;20.10;41.60
22383;DHT22;11359;45.802;13.530;2022-11-20T15:37:52;20.10;41.70
22383;DHT22;11359;45.802;13.530;2022-11-20T15:40:17;20.10;41.60
22383;DHT22;11359;45.802;13.530;2022-11-20T15:42:43;20.10;41.60
22383;DHT22;11359;45.802;13.530;2022-11-20T15:45:28;20.10;41.50
22383;DHT22;11359;45.802;13.530;2022-11-20T15:47:55;20.10;41.50
22383;DHT22;11359;45.802;13.530;2022-11-20T15:50:20;20.10;41.50
22383;DHT22;11359;45.802;13.530;2022-11-20T15:52:47;20.10;41.50
22383;DHT22;11359;45.802;13.530;2022-11-20T15:55:12;20.10;41.60
22383;DHT22;11359;45.802;13.530;2022-11-20T15:57:38;20.10;41.50
22383;DHT22;11359;45.802;13.530;2022-11-20T16:00:03;20.10;41.60
22383;DHT22;11359;45.802;13.530;2022-11-20T16:02:29;20.10;41.60
22383;DHT22;11359;45.802;13.530;2022-11-20T16:04:55;20.10;41.60
22383;DHT22;11359;45.802;13.530;2022-11-20T16:07:20;20.10;41.50
22383;DHT22;11359;45.802;13.530;2022-11-20T16:09:46;20.10;41.50
22383;DHT22;11359;45.802;13.530;2022-11-20T16:12:11;20.10;41.40
22383;DHT22;11359;45.802;13.530;2022-11-20T16:14:59;20.10;41.30
22383;DHT22;11359;45.802;13.530;2022-11-20T16:17:44;20.10;41.30
22383;DHT22;11359;45.802;13.530;2022-11-20T16:20:12;20.10;41.20
22383;DHT22;11359;45.802;13.530;2022-11-20T16:22:38;20.10;41.20
22383;DHT22;11359;45.802;13.530;2022-11-20T16:25:03;20.00;41.00
22383;DHT22;11359;45.802;13.530;2022-11-20T16:27:29;20.00;40.90
22383;DHT22;11359;45.802;13.530;2022-11-20T16:29:55;20.00;41.00
22383;DHT22;11359;45.802;13.530;2022-11-20T16:32:20;20.00;41.00
22383;DHT22;11359;45.802;13.530;2022-11-20T16:34:46;20.00;41.00
22383;DHT22;11359;45.802;13.530;2022-11-20T16:37:11;19.90;41.00
22383;DHT22;11359;45.802;13.530;2022-11-20T16:39:37;19.90;41.00
22383;DHT22;11359;45.802;13.530;2022-11-20T16:42:03;19.90;41.00
22383;DHT22;11359;45.802;13.530;2022-11-20T16:44:28;19.90;41.00
22383;DHT22;11359;45.802;13.530;2022-11-20T16:46:57;19.90;41.00
22383;DHT22;11359;45.802;13.530;2022-11-20T16:49:23;19.80;40.90
22383;DHT22;11359;45.802;13.530;2022-11-20T16:51:49;19.80;41.00
22383;DHT22;11359;45.802;13.530;2022-11-20T16:54:14;19.80;41.00
22383;DHT22;11359;45.802;13.530;2022-11-20T16:56:40;19.80;40.90
22383;DHT22;11359;45.802;13.530;2022-11-20T16:59:05;19.80;40.90
22383;DHT22;11359;45.802;13.530;2022-11-20T17:01:31;19.80;40.90
22383;DHT22;11359;45.802;13.530;2022-11-20T17:06:25;19.70;40.90
22383;DHT22;11359;45.802;13.530;2022-11-20T17:08:50;19.70;40.90
22383;DHT22;11359;45.802;13.530;2022-11-20T17:11:17;19.70;40.80
22383;DHT22;11359;45.802;13.530;2022-11-20T17:13:43;19.60;40.80
22383;DHT22;11359;45.802;13.530;2022-11-20T17:16:10;19.60;40.80